Time;durP1;ratioP1;P1;durP2;ratioP2;P2;SDS_P1;SDS_P2;PMS_P1;PMS_P2;Temp;Humidity;BMP_temperature;BMP_pressure;BME280_temperature;BME280_humidity;BME280_pressure;Samples;Min_cycle;Max_cycle;Signal;HPM_P1;HPM_P2
2023/07/10 00:01:28;;;;;;;9.68;3.92;;;;;;;29.41;46.95;96430.94;5005504;28;20168;-94
2023/07/10 00:03:54;;;;;;;6.88;4.18;;;;;;;29.41;46.85;96429.06;5002438;28;20513;-94
2023/07/10 00:06:20;;;;;;;8.07;4.65;;;;;;;29.42;47.16;96429.88;5018415;28;20025;-94
2023/07/10 00:08:46;;;;;;;7.22;4.38;;;;;;;29.33;48.03;96427.72;5004203;28;20056;-94
2023/07/10 00:11:18;;;;;;;6.93;4.55;;;;;;;29.33;48.21;96435.03;5021851;28;20032;-94
2023/07/10 00:13:45;;;;;;;10.32;4.05;;;;;;;28.89;50.82;96439.09;5020245;28;20117;-93
2023/07/10 00:16:18;;;;;;;10.57;4.60;;;;;;;29.12;51.59;96431.56;5017392;28;20045;-93
2023/07/10 00:18:44;;;;;;;7.95;3.88;;;;;;;28.86;52.35;96436.94;5009563;28;20028;-93
2023/07/10 00:21:10;;;;;;;8.30;4.38;;;;;;;28.69;53.53;96432.88;5015925;28;20021;-93
2023/07/10 00:23:48;;;;;;;6.32;3.97;;;;;;;28.70;53.88;96432.59;5018987;28;20036;-93
2023/07/10 00:26:25;;;;;;;7.70;3.78;;;;;;;28.65;52.88;96427.19;5006879;28;20037;-94
2023/07/10 00:29:01;;;;;;;9.13;4.18;;;;;;;28.67;53.62;96419.59;5006818;28;20021;-93
2023/07/10 00:31:27;;;;;;;7.60;3.65;;;;;;;28.60;54.70;96419.06;5013906;28;20383;-94
2023/07/10 00:33:53;;;;;;;9.93;4.38;;;;;;;28.61;52.99;96415.31;5017200;28;20044;-93
2023/07/10 00:36:29;;;;;;;9.75;4.45;;;;;;;28.77;53.33;96416.94;5008899;28;20079;-93
2023/07/10 00:38:56;;;;;;;8.30;4.38;;;;;;;28.68;53.00;96415.84;5003138;28;20619;-92
2023/07/10 00:41:26;;;;;;;8.40;3.85;;;;;;;28.74;51.38;96417.47;5006675;28;20032;-93
2023/07/10 00:43:57;;;;;;;7.65;4.15;;;;;;;28.60;53.05;96414.47;5020881;28;20082;-92
2023/07/10 00:46:41;;;;;;;10.65;4.70;;;;;;;28.67;53.82;96423.16;5020481;28;20060;-93
2023/07/10 00:49:18;;;;;;;8.43;4.45;;;;;;;28.41;54.21;96416.91;5020128;28;20052;-93
2023/07/10 00:52:06;;;;;;;10.85;4.70;;;;;;;28.50;51.62;96417.16;5033326;28;20029;-93
2023/07/10 00:54:37;;;;;;;8.25;4.55;;;;;;;28.51;51.45;96415.28;5014595;28;20137;-93
2023/07/10 00:57:09;;;;;;;9.65;4.70;;;;;;;28.57;50.93;96409.63;5016424;28;20028;-93
2023/07/10 00:59:38;;;;;;;8.68;4.55;;;;;;;28.46;52.59;96410.66;5013623;28;20103;-92
2023/07/10 01:02:07;;;;;;;7.00;3.80;;;;;;;28.48;53.46;96402.31;5010250;28;20045;-93
2023/07/10 01:04:40;;;;;;;8.35;4.00;;;;;;;28.30;53.56;96407.09;5015439;28;20024;-93
2023/07/10 01:07:16;;;;;;;8.70;4.10;;;;;;;28.38;53.84;96398.47;5023242;28;20035;-92
2023/07/10 01:09:47;;;;;;;9.25;4.18;;;;;;;28.08;54.38;96403.81;5039609;28;20017;-93
2023/07/10 01:12:13;;;;;;;6.50;3.80;;;;;;;28.29;52.94;96391.16;5018821;28;20047;-93
2023/07/10 01:14:39;;;;;;;10.40;4.75;;;;;;;28.03;53.84;96401.91;5014939;28;20033;-93
2023/07/10 01:17:07;;;;;;;12.15;6.10;;;;;;;28.09;53.92;96402.72;5011189;28;20083;-92
2023/07/10 01:19:35;;;;;;;11.45;5.97;;;;;;;27.95;56.02;96414.03;5019083;28;20055;-93
2023/07/10 01:22:01;;;;;;;14.73;7.03;;;;;;;27.87;57.30;96414.56;5030301;28;20025;-93
2023/07/10 01:24:29;;;;;;;14.55;6.65;;;;;;;27.82;58.39;96417.25;5002927;28;20132;-93
2023/07/10 01:26:57;;;;;;;18.02;8.95;;;;;;;27.57;59.85;96427.94;5016433;28;20026;-93
2023/07/10 01:29:41;;;;;;;31.85;14.93;;;;;;;27.68;57.56;96432.28;5017608;28;20021;-93
2023/07/10 01:32:13;;;;;;;22.17;10.73;;;;;;;27.68;54.37;96424.19;5023445;28;20071;-92
2023/07/10 01:34:43;;;;;;;20.45;9.95;;;;;;;27.83;53.35;96439.66;5015127;28;20044;-92
2023/07/10 01:37:11;;;;;;;16.17;7.22;;;;;;;27.76;53.60;96436.38;5012533;28;20025;-93
2023/07/10 01:39:50;;;;;;;11.68;5.90;;;;;;;27.97;51.56;96438.13;5020455;28;20017;-92
2023/07/10 01:42:15;;;;;;;14.43;6.15;;;;;;;27.97;51.62;96451.66;5010789;28;20029;-93
2023/07/10 01:44:44;;;;;;;9.38;4.15;;;;;;;27.88;51.23;96451.31;5028439;28;20479;-93
2023/07/10 01:47:12;;;;;;;7.78;4.38;;;;;;;27.95;50.65;96457.28;5018491;28;20112;-93
2023/07/10 01:49:43;;;;;;;9.60;4.47;;;;;;;28.02;50.32;96459.75;5015982;28;20036;-93
2023/07/10 01:52:11;;;;;;;11.02;4.38;;;;;;;28.04;50.33;96460.31;5014189;28;20078;-93
2023/07/10 01:54:38;;;;;;;7.85;4.00;;;;;;;28.13;51.81;96458.69;5019449;28;20017;-93
2023/07/10 01:57:06;;;;;;;8.95;3.72;;;;;;;27.88;52.21;96462.13;5014345;28;20092;-92
2023/07/10 01:59:32;;;;;;;7.45;3.75;;;;;;;27.99;53.65;96459.47;5024409;28;20399;-92
2023/07/10 02:01:58;;;;;;;8.85;4.63;;;;;;;27.65;55.39;96454.44;5015441;28;20029;-94
2023/07/10 02:04:37;;;;;;;10.27;4.60;;;;;;;27.32;60.17;96464.50;5004182;28;20025;-92
2023/07/10 02:07:03;;;;;;;10.38;5.20;;;;;;;27.35;61.15;96469.38;5005071;28;20022;-92
2023/07/10 02:09:30;;;;;;;8.68;4.80;;;;;;;27.35;61.64;96469.38;5014776;28;20047;-93
2023/07/10 02:11:56;;;;;;;9.82;4.85;;;;;;;27.36;62.41;96460.19;5011181;28;20040;-93
2023/07/10 02:14:23;;;;;;;12.30;5.38;;;;;;;27.30;64.11;96465.81;5019253;28;20047;-93
2023/07/10 02:16:50;;;;;;;11.68;4.95;;;;;;;27.17;65.69;96464.41;5017090;28;20045;-93
2023/07/10 02:19:16;;;;;;;12.02;5.47;;;;;;;27.24;62.74;96456.91;5005429;28;20654;-92
2023/07/10 02:21:42;;;;;;;8.68;4.25;;;;;;;27.13;63.13;96455.19;5013188;28;20037;-92
2023/07/10 02:24:08;;;;;;;8.50;4.60;;;;;;;27.07;64.39;96448.91;5004429;28;20116;-93
2023/07/10 02:26:34;;;;;;;12.77;4.65;;;;;;;26.99;64.03;96452.06;5001054;28;20083;-92
2023/07/10 02:29:00;;;;;;;11.18;4.47;;;;;;;27.09;63.28;96437.84;5035434;28;20067;-92
2023/07/10 02:31:30;;;;;;;11.63;4.45;;;;;;;26.71;64.24;96434.31;5012408;28;20034;-93
2023/07/10 02:33:56;;;;;;;9.80;4.82;;;;;;;26.95;64.58;96438.28;5019516;28;20060;-93
2023/07/10 02:36:23;;;;;;;9.48;5.05;;;;;;;27.03;64.38;96437.81;5019202;28;20111;-92
2023/07/10 02:38:49;;;;;;;7.30;4.32;;;;;;;26.95;66.19;96432.09;5032275;28;20059;-92
2023/07/10 02:41:14;;;;;;;9.70;5.05;;;;;;;26.71;68.69;96434.31;5013679;28;20108;-93
2023/07/10 02:43:40;;;;;;;8.63;4.18;;;;;;;26.58;68.83;96429.34;5009324;28;20076;-92
2023/07/10 02:46:06;;;;;;;13.85;6.68;;;;;;;26.28;71.95;96417.16;5019374;28;20398;-93
2023/07/10 02:48:32;;;;;;;16.08;8.52;;;;;;;26.39;71.30;96413.53;5020006;28;20096;-92
2023/07/10 02:50:57;;;;;;;15.00;7.18;;;;;;;26.31;72.90;96416.66;5029977;28;20090;-92
2023/07/10 02:53:23;;;;;;;12.45;6.00;;;;;;;26.16;74.64;96416.53;5039122;28;20020;-91
2023/07/10 02:55:49;;;;;;;10.90;4.72;;;;;;;26.29;72.72;96410.69;5033124;28;20025;-93
2023/07/10 02:58:16;;;;;;;8.00;4.38;;;;;;;26.31;72.19;96405.88;5029863;28;20108;-92
2023/07/10 03:00:41;;;;;;;9.77;4.80;;;;;;;26.40;71.47;96407.06;5018026;28;20467;-92
2023/07/10 03:03:07;;;;;;;8.25;4.57;;;;;;;26.30;71.83;96410.47;5000028;28;20017;-92
2023/07/10 03:05:39;;;;;;;10.65;5.50;;;;;;;26.53;69.17;96403.97;5015981;28;20440;-92
2023/07/10 03:08:04;;;;;;;10.30;4.38;;;;;;;26.50;69.42;96404.47;4999469;28;20044;-92
2023/07/10 03:10:30;;;;;;;8.95;4.55;;;;;;;26.58;68.55;96410.47;5012294;28;20407;-92
2023/07/10 03:12:55;;;;;;;8.60;4.30;;;;;;;26.69;67.32;96418.38;5027722;28;20398;-94
2023/07/10 03:15:26;;;;;;;8.05;4.10;;;;;;;26.70;65.79;96419.22;5014228;28;20025;-92
2023/07/10 03:18:02;;;;;;;7.75;3.97;;;;;;;26.78;64.78;96426.81;5032022;28;20033;-93
2023/07/10 03:20:27;;;;;;;7.18;4.22;;;;;;;26.86;64.96;96428.22;5021068;28;20047;-93
2023/07/10 03:22:54;;;;;;;9.43;4.20;;;;;;;26.79;65.04;96429.28;5026688;28;20001;-93
2023/07/10 03:25:20;;;;;;;7.18;4.10;;;;;;;26.89;65.88;96443.91;5034668;28;20028;-93
2023/07/10 03:27:48;;;;;;;9.77;4.70;;;;;;;26.87;65.64;96446.06;5024381;28;20033;-91
2023/07/10 03:30:14;;;;;;;6.68;4.15;;;;;;;26.86;65.01;96444.41;5026004;28;20044;-92
2023/07/10 03:32:40;;;;;;;9.65;3.80;;;;;;;26.87;65.00;96457.66;5030998;28;20486;-93
2023/07/10 03:35:06;;;;;;;11.82;5.05;;;;;;;26.85;64.78;96446.31;5023408;28;20022;-90
2023/07/10 03:37:33;;;;;;;12.93;4.35;;;;;;;26.80;65.58;96448.97;5023692;28;20086;-92
2023/07/10 03:39:59;;;;;;;8.07;4.38;;;;;;;26.49;68.11;96455.97;5011917;28;20070;-92
2023/07/10 03:42:24;;;;;;;9.55;4.80;;;;;;;26.49;69.11;96456.78;5034714;28;20020;-92
2023/07/10 03:44:54;;;;;;;9.18;4.15;;;;;;;26.60;70.83;96459.59;5022154;28;20024;-93
2023/07/10 03:47:19;;;;;;;7.90;4.40;;;;;;;27.01;66.56;96485.84;5017378;28;20025;-93
2023/07/10 03:49:48;;;;;;;8.68;3.90;;;;;;;27.19;66.04;96484.66;5013503;28;20098;-92
2023/07/10 03:52:14;;;;;;;8.68;4.30;;;;;;;26.91;67.75;96488.47;5008263;28;20075;-92
2023/07/10 03:54:39;;;;;;;9.05;4.60;;;;;;;26.57;71.40;96485.19;5010561;28;20029;-92
2023/07/10 03:57:05;;;;;;;8.55;4.47;;;;;;;26.80;72.65;96492.16;5002249;28;20029;-92
2023/07/10 03:59:31;;;;;;;8.35;4.25;;;;;;;26.80;75.08;96494.84;5030826;28;20017;-86
2023/07/10 04:01:56;;;;;;;10.32;4.72;;;;;;;26.96;75.29;96476.88;5018120;28;20020;-87
2023/07/10 04:04:22;;;;;;;9.73;4.53;;;;;;;27.19;75.37;96470.34;5017412;28;20021;-86
2023/07/10 04:06:47;;;;;;;9.05;4.25;;;;;;;27.31;75.72;96468.28;5019763;28;20025;-86
2023/07/10 04:09:13;;;;;;;11.10;5.43;;;;;;;27.17;76.50;96483.31;5028473;28;20052;-86
2023/07/10 04:11:38;;;;;;;7.13;4.25;;;;;;;27.52;74.40;96485.41;5013065;28;20056;-92
2023/07/10 04:14:04;;;;;;;7.82;4.70;;;;;;;27.52;75.27;96498.13;5036395;28;20021;-91
2023/07/10 04:16:30;;;;;;;8.50;4.40;;;;;;;27.03;80.31;96510.72;5014113;28;20606;-92
2023/07/10 04:18:55;;;;;;;8.82;4.60;;;;;;;26.80;84.19;96511.84;5010842;28;20092;-91
2023/07/10 04:21:23;;;;;;;8.77;4.63;;;;;;;26.74;85.71;96506.66;5021463;28;20013;-92
2023/07/10 04:23:48;;;;;;;8.77;5.03;;;;;;;26.88;85.65;96507.84;5021658;28;20024;-91
2023/07/10 04:26:25;;;;;;;12.45;4.78;;;;;;;26.79;86.49;96514.78;5021363;28;20060;-92
2023/07/10 04:28:53;;;;;;;8.90;4.80;;;;;;;26.75;87.54;96508.28;5017611;28;20032;-92
2023/07/10 04:31:20;;;;;;;9.02;4.80;;;;;;;26.72;89.27;96509.59;5017041;28;20080;-92
2023/07/10 04:33:46;;;;;;;8.70;4.45;;;;;;;26.64;90.56;96514.66;5023878;28;20031;-92
2023/07/10 04:36:12;;;;;;;9.18;4.43;;;;;;;26.33;93.24;96517.81;5024624;28;20032;-92
2023/07/10 04:38:38;;;;;;;9.98;5.05;;;;;;;26.68;91.47;96516.56;5037510;28;20017;-92
2023/07/10 04:41:21;;;;;;;8.82;4.75;;;;;;;26.87;91.58;96517.03;5021701;28;20028;-92
2023/07/10 04:43:47;;;;;;;9.00;4.93;;;;;;;26.72;93.00;96514.19;5046313;28;20025;-92
2023/07/10 04:46:15;;;;;;;10.50;5.82;;;;;;;27.00;90.53;96513.91;5021710;28;20033;-92
2023/07/10 04:48:42;;;;;;;11.63;5.15;;;;;;;26.91;92.71;96520.84;5022669;28;20400;-92
2023/07/10 04:51:18;;;;;;;10.90;4.97;;;;;;;26.78;94.13;96530.16;5022966;28;20021;-92
2023/07/10 04:53:44;;;;;;;8.95;4.78;;;;;;;26.74;94.44;96549.81;5022211;28;20021;-92
2023/07/10 04:56:11;;;;;;;9.43;4.55;;;;;;;26.76;96.33;96545.81;5020423;28;20027;-93
2023/07/10 04:58:57;;;;;;;9.93;4.70;;;;;;;27.00;95.67;96564.38;5032718;28;20018;-92
2023/07/10 05:01:26;;;;;;;8.43;4.93;;;;;;;26.91;96.07;96564.03;5022395;28;20017;-92
2023/07/10 05:03:52;;;;;;;9.73;5.25;;;;;;;26.75;98.15;96567.63;5012352;28;20018;-93
2023/07/10 05:06:18;;;;;;;10.35;5.07;;;;;;;26.62;99.27;96578.81;5034075;28;20021;-92
2023/07/10 05:08:45;;;;;;;11.60;5.15;;;;;;;26.86;99.03;96601.78;5014531;28;20031;-92
2023/07/10 05:11:11;;;;;;;11.82;5.07;;;;;;;26.67;100.00;96593.19;5007819;28;20030;-92
2023/07/10 05:13:37;;;;;;;11.05;5.38;;;;;;;26.16;100.00;96591.72;5002652;28;20330;-93
2023/07/10 05:16:02;;;;;;;11.60;5.25;;;;;;;26.26;100.00;96591.88;5007275;28;20021;-91
2023/07/10 05:18:29;;;;;;;8.27;4.82;;;;;;;26.45;100.00;96592.34;5032956;28;20033;-92
2023/07/10 05:20:58;;;;;;;10.52;5.28;;;;;;;26.70;100.00;96597.28;5007184;28;20107;-93
2023/07/10 05:27:04;;;;;;;10.85;5.35;;;;;;;26.86;100.00;96596.38;5050490;28;20487;-92
2023/07/10 05:29:30;;;;;;;11.82;5.50;;;;;;;26.74;100.00;96587.59;5017750;28;20375;-93
2023/07/10 05:31:56;;;;;;;11.23;5.05;;;;;;;26.75;100.00;96589.22;5034356;28;20032;-92
2023/07/10 05:34:23;;;;;;;8.32;5.35;;;;;;;26.61;100.00;96588.00;5021950;28;20029;-93
2023/07/10 05:36:49;;;;;;;21.35;5.18;;;;;;;26.78;100.00;96589.53;5019465;28;20032;-93
2023/07/10 05:39:15;;;;;;;11.63;5.07;;;;;;;26.73;100.00;96596.78;5057054;28;20033;-91
2023/07/10 05:41:40;;;;;;;9.75;5.50;;;;;;;26.98;100.00;96598.91;5040967;28;20514;-92
2023/07/10 05:44:06;;;;;;;11.57;4.97;;;;;;;26.69;100.00;96606.41;5002532;28;20025;-93
2023/07/10 05:46:32;;;;;;;10.25;5.15;;;;;;;26.98;100.00;96615.91;5037148;28;20100;-91
2023/07/10 05:48:58;;;;;;;7.78;4.82;;;;;;;27.06;100.00;96606.53;5060837;28;20020;-91
2023/07/10 05:51:23;;;;;;;8.38;5.05;;;;;;;27.30;100.00;96595.44;5044520;28;20029;-92
2023/07/10 05:54:17;;;;;;;12.32;5.50;;;;;;;27.41;100.00;96599.88;5060122;28;20525;-93
2023/07/10 05:57:06;;;;;;;9.32;5.03;;;;;;;27.88;99.33;96602.69;5024376;28;20025;-93
2023/07/10 05:59:32;;;;;;;11.02;4.95;;;;;;;27.74;100.00;96612.28;5025195;28;20017;-90
2023/07/10 06:02:04;;;;;;;12.10;5.20;;;;;;;27.55;100.00;96616.47;5024649;28;20044;-90
2023/07/10 06:04:29;;;;;;;8.20;5.30;;;;;;;27.78;100.00;96621.53;5041019;28;20384;-92
2023/07/10 06:06:55;;;;;;;14.60;5.70;;;;;;;28.08;100.00;96609.31;5031687;28;20063;-93
2023/07/10 06:09:20;;;;;;;10.18;5.50;;;;;;;28.35;97.92;96623.50;5009394;28;20475;-93
2023/07/10 06:15:27;;;;;;;8.45;5.25;;;;;;;29.21;92.41;96614.09;5056076;28;20040;-93
2023/07/10 06:17:53;;;;;;;9.48;5.53;;;;;;;29.73;88.06;96602.22;5020960;28;20076;-93
2023/07/10 06:20:19;;;;;;;9.30;5.65;;;;;;;29.78;87.07;96623.09;5037378;28;20406;-93
2023/07/10 06:23:04;;;;;;;11.07;5.50;;;;;;;29.96;86.66;96624.41;5002333;28;20025;-92
2023/07/10 06:25:30;;;;;;;8.90;5.75;;;;;;;29.99;86.67;96615.75;5001378;28;20090;-94
2023/07/10 06:27:55;;;;;;;10.77;5.18;;;;;;;30.56;83.53;96622.66;5017722;28;20029;-94
2023/07/10 06:30:21;;;;;;;9.05;5.10;;;;;;;30.46;82.33;96618.06;5001253;28;20029;-93
2023/07/10 06:32:47;;;;;;;10.38;4.88;;;;;;;31.08;80.13;96618.59;5008544;28;20025;-92
2023/07/10 06:35:12;;;;;;;12.63;6.63;;;;;;;31.26;77.77;96629.94;5030205;28;20029;-92
2023/07/10 06:37:42;;;;;;;9.50;5.60;;;;;;;30.99;78.21;96631.19;5014931;28;20037;-90
2023/07/10 06:40:14;;;;;;;12.73;5.70;;;;;;;31.01;82.37;96628.97;5019486;28;20041;-91
2023/07/10 06:42:42;;;;;;;13.18;6.32;;;;;;;31.02;78.51;96625.19;5018614;28;20025;-92
2023/07/10 06:45:12;;;;;;;13.20;6.40;;;;;;;31.35;76.01;96622.81;5034282;28;20170;-91
2023/07/10 06:47:43;;;;;;;9.88;6.13;;;;;;;31.56;75.46;96629.75;5012671;28;20466;-91
2023/07/10 06:50:10;;;;;;;12.00;5.65;;;;;;;31.69;75.65;96629.09;5001110;28;20020;-92
2023/07/10 06:52:42;;;;;;;10.27;6.05;;;;;;;32.35;73.08;96622.19;5018664;28;20090;-91
2023/07/10 06:55:10;;;;;;;9.57;5.40;;;;;;;32.42;70.17;96600.09;5021216;28;20103;-91
2023/07/10 06:57:36;;;;;;;10.02;6.55;;;;;;;32.42;68.86;96585.66;5032592;28;20056;-92
2023/07/10 07:00:04;;;;;;;9.23;5.50;;;;;;;33.22;65.55;96571.25;5023822;28;20463;-94
2023/07/10 07:02:29;;;;;;;9.70;5.72;;;;;;;34.09;58.89;96562.44;5031553;28;20104;-94
2023/07/10 07:04:55;;;;;;;9.23;6.13;;;;;;;34.08;58.34;96557.31;5035314;28;20086;-94
2023/07/10 07:07:20;;;;;;;11.00;6.07;;;;;;;33.70;59.07;96555.50;5019992;28;20092;-94
2023/07/10 07:09:46;;;;;;;13.45;6.07;;;;;;;35.14;53.74;96547.97;5014168;28;20025;-94
2023/07/10 07:12:13;;;;;;;10.20;5.55;;;;;;;35.83;49.83;96553.13;5023787;28;20515;-94
2023/07/10 07:14:39;;;;;;;8.85;5.65;;;;;;;34.97;51.59;96582.19;5015018;28;20033;-94
2023/07/10 07:17:05;;;;;;;9.10;5.70;;;;;;;34.97;52.91;96606.78;5013465;28;20368;-94
2023/07/10 07:19:31;;;;;;;10.02;5.03;;;;;;;35.13;52.39;96620.16;5021952;28;20113;-91
2023/07/10 07:21:58;;;;;;;8.90;5.28;;;;;;;35.49;50.80;96613.88;5020491;28;20064;-90
2023/07/10 07:24:24;;;;;;;9.02;5.65;;;;;;;34.96;52.08;96628.97;5018220;28;20027;-90
2023/07/10 07:26:50;;;;;;;10.20;5.88;;;;;;;35.05;52.75;96637.31;5029689;28;20032;-89
2023/07/10 07:29:15;;;;;;;9.15;5.28;;;;;;;35.39;51.31;96631.31;5019533;28;20021;-90
2023/07/10 07:31:41;;;;;;;8.93;5.93;;;;;;;35.42;51.18;96636.19;5035067;28;20082;-90
2023/07/10 07:34:10;;;;;;;11.25;6.05;;;;;;;35.99;50.22;96627.44;5007729;28;20020;-90
2023/07/10 07:36:36;;;;;;;11.52;5.63;;;;;;;35.35;51.43;96622.94;5018598;28;20025;-90
2023/07/10 07:39:04;;;;;;;8.35;5.25;;;;;;;36.12;49.72;96618.34;5016274;28;20021;-89
2023/07/10 07:41:33;;;;;;;9.25;5.82;;;;;;;34.78;53.52;96621.72;5020823;28;20501;-90
2023/07/10 07:44:00;;;;;;;8.20;5.22;;;;;;;36.08;50.10;96618.16;5037944;28;20017;-90
2023/07/10 07:46:26;;;;;;;7.60;5.07;;;;;;;36.00;49.04;96623.56;5022341;28;20032;-90
2023/07/10 07:48:51;;;;;;;7.55;5.15;;;;;;;35.62;50.30;96618.50;5030452;28;20025;-90
2023/07/10 07:51:17;;;;;;;10.45;5.40;;;;;;;35.53;50.53;96617.63;5027740;28;20013;-89
2023/07/10 07:53:43;;;;;;;11.60;5.57;;;;;;;36.27;48.67;96617.13;5040104;28;20033;-89
2023/07/10 07:56:09;;;;;;;8.30;5.28;;;;;;;36.17;48.58;96612.72;5024659;28;20036;-89
2023/07/10 07:58:35;;;;;;;10.23;5.25;;;;;;;35.69;49.96;96616.13;5037157;28;20025;-90
2023/07/10 08:01:02;;;;;;;8.02;4.82;;;;;;;36.31;48.39;96613.41;5024185;28;20028;-90
2023/07/10 08:03:28;;;;;;;11.73;5.22;;;;;;;37.35;45.66;96601.91;5012425;28;20071;-90
2023/07/10 08:05:53;;;;;;;10.00;4.97;;;;;;;38.75;41.91;96603.16;5033466;28;20025;-90
2023/07/10 08:08:19;;;;;;;10.35;5.53;;;;;;;38.18;42.28;96598.88;5035431;28;20021;-90
2023/07/10 08:10:47;;;;;;;8.63;5.38;;;;;;;37.87;42.70;96606.56;5029109;28;20067;-90
2023/07/10 08:13:14;;;;;;;7.75;5.10;;;;;;;37.80;43.56;96615.31;5023397;28;20020;-90
2023/07/10 08:15:46;;;;;;;7.53;5.28;;;;;;;38.70;41.47;96608.88;5022403;28;20028;-90
2023/07/10 08:18:13;;;;;;;11.73;5.20;;;;;;;37.98;42.98;96613.34;5015512;28;20055;-90
2023/07/10 08:20:38;;;;;;;10.48;5.43;;;;;;;37.17;44.26;96614.81;5029205;28;20041;-89
2023/07/10 08:23:04;;;;;;;8.05;5.20;;;;;;;37.61;42.95;96610.16;5034600;28;20032;-90
2023/07/10 08:25:31;;;;;;;7.95;5.38;;;;;;;38.48;41.29;96609.94;5011379;28;20281;-90
2023/07/10 08:27:58;;;;;;;7.32;4.60;;;;;;;37.53;42.90;96608.25;5017819;28;20119;-90
2023/07/10 08:30:24;;;;;;;13.38;4.78;;;;;;;38.44;41.00;96609.00;5018019;28;20017;-90
2023/07/10 08:32:50;;;;;;;8.02;4.65;;;;;;;37.70;42.71;96613.69;5020797;28;20025;-90
2023/07/10 08:35:16;;;;;;;7.55;4.72;;;;;;;37.36;42.11;96617.25;5011584;28;20100;-90
2023/07/10 08:37:42;;;;;;;6.68;4.05;;;;;;;37.67;41.62;96622.59;5032634;28;20029;-90
2023/07/10 08:40:16;;;;;;;9.20;4.05;;;;;;;38.10;40.40;96632.69;5013359;28;20013;-90
2023/07/10 08:42:42;;;;;;;7.15;4.30;;;;;;;37.40;41.92;96620.16;5017454;28;20025;-90
2023/07/10 08:45:16;;;;;;;8.15;4.78;;;;;;;37.49;40.84;96627.28;5018929;28;20021;-90
2023/07/10 08:47:46;;;;;;;7.55;4.53;;;;;;;38.33;40.04;96629.69;5019030;28;20025;-89
2023/07/10 08:50:22;;;;;;;7.55;3.75;;;;;;;38.53;39.68;96628.97;5011864;28;20032;-90
2023/07/10 08:52:59;;;;;;;6.85;4.53;;;;;;;38.87;39.10;96633.53;5001862;28;20083;-90
2023/07/10 08:55:31;;;;;;;7.70;4.20;;;;;;;38.43;39.16;96629.34;5023807;28;20030;-90
2023/07/10 08:58:00;;;;;;;7.53;4.15;;;;;;;38.87;38.58;96639.03;5013569;28;20048;-90
2023/07/10 09:00:30;;;;;;;9.13;4.70;;;;;;;38.91;38.95;96633.69;5014997;28;20060;-90
2023/07/10 09:03:21;;;;;;;9.10;4.28;;;;;;;39.12;38.77;96651.00;5006278;28;20044;-90
2023/07/10 09:05:52;;;;;;;6.75;4.90;;;;;;;39.69;37.45;96641.34;5014230;28;20502;-89
2023/07/10 09:08:19;;;;;;;9.32;5.22;;;;;;;39.30;38.08;96642.66;5014677;28;20487;-90
2023/07/10 09:11:01;;;;;;;9.35;5.10;;;;;;;39.59;38.31;96644.53;5028265;28;20060;-90
2023/07/10 09:13:42;;;;;;;13.25;6.38;;;;;;;38.60;39.30;96653.22;5009807;28;20021;-89
2023/07/10 09:16:16;;;;;;;7.80;4.55;;;;;;;38.60;38.70;96651.28;5034324;28;20018;-89
2023/07/10 09:18:51;;;;;;;9.82;5.10;;;;;;;38.74;39.37;96650.25;5024274;28;20018;-90
2023/07/10 09:21:20;;;;;;;9.63;5.53;;;;;;;38.94;38.40;96654.22;5022541;28;20033;-89
2023/07/10 09:23:47;;;;;;;7.25;5.20;;;;;;;39.49;38.26;96642.19;5029031;28;20322;-89
2023/07/10 09:26:21;;;;;;;8.32;6.35;;;;;;;39.66;38.31;96646.72;5014731;28;20021;-90
2023/07/10 09:29:14;;;;;;;8.57;4.93;;;;;;;39.47;37.06;96655.47;5023357;28;20026;-90
2023/07/10 09:31:58;;;;;;;11.32;5.28;;;;;;;39.62;37.25;96649.34;5010070;28;20031;-90
2023/07/10 09:34:30;;;;;;;7.13;5.35;;;;;;;38.99;38.02;96657.56;5005340;28;20017;-89
2023/07/10 09:36:57;;;;;;;13.85;5.38;;;;;;;38.57;39.21;96662.13;5030342;28;20028;-90
2023/07/10 09:39:32;;;;;;;8.07;5.13;;;;;;;37.43;41.52;96658.72;5041574;28;20066;-90
2023/07/10 09:41:59;;;;;;;9.27;4.72;;;;;;;38.34;40.73;96658.78;5022617;28;20021;-90
2023/07/10 09:44:35;;;;;;;7.60;5.30;;;;;;;38.11;40.81;96661.75;5013071;28;20022;-90
2023/07/10 09:47:10;;;;;;;7.90;4.43;;;;;;;36.69;43.80;96666.91;5028004;28;20077;-89
2023/07/10 09:49:42;;;;;;;8.55;5.35;;;;;;;38.04;42.16;96666.97;5011285;28;20025;-90
2023/07/10 09:52:17;;;;;;;6.93;4.70;;;;;;;38.13;40.75;96658.69;5019346;28;20052;-89
2023/07/10 09:54:42;;;;;;;9.48;5.15;;;;;;;38.88;39.96;96662.66;5015093;28;20025;-90
2023/07/10 09:57:17;;;;;;;7.68;4.47;;;;;;;39.13;39.06;96660.84;5026044;28;20060;-90
2023/07/10 09:59:48;;;;;;;8.70;5.07;;;;;;;37.04;42.41;96651.41;5025234;28;20502;-91
2023/07/10 10:02:19;;;;;;;9.15;4.60;;;;;;;37.48;41.55;96652.28;5017731;28;20035;-90
2023/07/10 10:04:51;;;;;;;7.45;4.55;;;;;;;36.49;43.69;96657.38;5026363;28;20009;-89
2023/07/10 10:07:22;;;;;;;7.17;5.00;;;;;;;37.67;42.54;96654.72;5028451;28;20119;-91
2023/07/10 10:10:01;;;;;;;8.00;5.07;;;;;;;38.97;40.66;96645.28;5018403;28;20529;-89
2023/07/10 10:12:34;;;;;;;7.88;4.70;;;;;;;39.81;38.86;96640.63;5028613;28;20033;-90
2023/07/10 10:15:38;;;;;;;8.90;4.20;;;;;;;39.80;38.03;96644.50;5024174;28;20026;-90
2023/07/10 10:18:12;;;;;;;7.85;4.35;;;;;;;39.29;37.75;96630.84;5004329;28;20033;-90
2023/07/10 10:20:39;;;;;;;7.13;4.40;;;;;;;39.29;38.83;96632.78;5011408;28;20026;-90
2023/07/10 10:23:27;;;;;;;7.10;4.35;;;;;;;39.71;37.95;96638.31;5021749;28;20017;-91
2023/07/10 10:25:54;;;;;;;9.70;4.65;;;;;;;39.90;36.83;96635.03;5030209;28;20114;-88
2023/07/10 10:28:34;;;;;;;7.55;4.32;;;;;;;39.03;37.87;96638.44;5018309;28;20025;-88
2023/07/10 10:31:07;;;;;;;6.85;4.07;;;;;;;39.08;38.92;96641.81;5036485;28;20110;-88
2023/07/10 10:33:59;;;;;;;10.43;5.53;;;;;;;38.36;38.81;96646.34;5017776;28;20475;-87
2023/07/10 10:36:57;;;;;;;8.57;6.82;;;;;;;39.23;37.57;96640.41;5031002;28;20033;-88
2023/07/10 10:39:44;;;;;;;6.43;4.20;;;;;;;40.17;36.64;96631.66;5039126;28;20025;-88
2023/07/10 10:42:43;;;;;;;7.95;3.90;;;;;;;39.25;36.74;96637.34;5013814;28;20017;-88
2023/07/10 10:45:15;;;;;;;8.55;4.63;;;;;;;39.23;36.61;96634.91;5041357;28;20028;-88
2023/07/10 10:48:05;;;;;;;8.30;4.28;;;;;;;37.11;40.62;96637.22;5020647;28;20115;-88
2023/07/10 10:50:45;;;;;;;7.85;4.05;;;;;;;37.58;40.88;96640.97;5020028;28;20029;-89
2023/07/10 10:53:50;;;;;;;6.47;3.88;;;;;;;38.16;39.04;96636.88;5020633;28;20092;-89
2023/07/10 10:56:38;;;;;;;6.05;4.65;;;;;;;38.59;38.02;96626.88;5024655;28;20408;-87
2023/07/10 10:59:48;;;;;;;7.85;4.85;;;;;;;38.87;38.07;96627.25;5012186;28;20112;-90
2023/07/10 11:02:38;;;;;;;8.27;4.75;;;;;;;39.07;37.47;96631.97;5023114;28;20021;-94
2023/07/10 11:05:20;;;;;;;7.32;4.70;;;;;;;39.25;37.79;96626.31;5020543;28;20029;-90
2023/07/10 11:07:51;;;;;;;9.05;5.53;;;;;;;38.68;38.55;96628.44;5022219;28;20088;-88
2023/07/10 11:10:42;;;;;;;7.07;3.92;;;;;;;39.48;37.10;96624.88;5022269;28;20079;-88
2023/07/10 11:13:33;;;;;;;7.78;4.15;;;;;;;39.77;36.81;96620.41;5039699;28;20025;-87
2023/07/10 11:16:02;;;;;;;8.77;4.05;;;;;;;38.75;37.62;96624.38;5038004;28;20064;-88
2023/07/10 11:18:38;;;;;;;6.53;4.07;;;;;;;39.38;37.01;96624.47;5041612;28;20481;-88
2023/07/10 11:21:34;;;;;;;8.68;4.78;;;;;;;40.21;36.65;96626.28;5014517;28;20037;-88
2023/07/10 11:24:26;;;;;;;9.07;6.10;;;;;;;40.18;36.93;96618.72;5016732;28;20052;-87
2023/07/10 11:27:00;;;;;;;6.15;4.03;;;;;;;40.20;35.70;96613.66;5023830;28;20034;-88
2023/07/10 11:29:40;;;;;;;7.10;3.90;;;;;;;40.44;35.11;96610.91;5050874;28;20037;-87
2023/07/10 11:32:16;;;;;;;7.72;4.25;;;;;;;41.64;33.96;96603.97;5023272;28;20037;-89
2023/07/10 11:35:14;;;;;;;8.15;4.35;;;;;;;41.59;33.99;96600.69;5027969;28;20032;-89
2023/07/10 11:38:14;;;;;;;8.05;4.65;;;;;;;40.68;35.16;96590.03;5006320;28;20037;-88
2023/07/10 11:40:47;;;;;;;6.75;3.95;;;;;;;41.12;34.83;96591.03;4996810;28;20048;-88
2023/07/10 11:44:07;;;;;;;7.70;5.00;;;;;;;40.24;34.38;96603.56;5012986;28;20605;-88
2023/07/10 11:46:35;;;;;;;7.20;4.28;;;;;;;40.69;34.69;96599.94;5008502;28;20044;-88
2023/07/10 11:49:15;;;;;;;9.20;4.60;;;;;;;40.37;35.50;96602.41;5018522;28;20035;-88
2023/07/10 11:51:42;;;;;;;7.00;4.68;;;;;;;40.76;34.71;96606.47;5025305;28;20069;-88
2023/07/10 11:54:07;;;;;;;7.05;4.55;;;;;;;39.97;35.84;96594.75;5007245;28;20070;-88